Terminal Aerodrome Forecast
Issued by NWS

Home | Current Version | Previous Version | Text Only | Print | Product List | Glossary On
Versions: 1 2 3 4 5 6 7 8 9 10 11 12 13 14
000
FTUS43 KOAX 291720
TAFSNY
TAF
KSNY 291720Z 2918/3018 33025G35KT P6SM SKC
     FM292000 34015G25KT P6SM SKC
     FM300100 17007KT P6SM SCT300=

USA.gov is the U.S. government's official web portal to all federal, state and local government web resources and services.